Stella Prima — PHEA — position and weather

sailwx.info

Track history (hours):
 
Tides and Currents Weather Stations Pressure Air Temp Water Temp Dewpoint Dewpoint Depression Visibility Wind Speed Wind Dir Waves Ship Positions

Stella Prima

Last reported at 2016-Sep-26 02:33 UTC. Time now 2016-Sep-26 19:03 UTC.
Position N 49°26' E 000°18'.

Length 100 m; beam 21 m.

Type: Cargo ship. MMSI: 246460000.

Date/timePositionNaut miles runAvg speedWind from/ knotsBaromVisibWave heightAir tempDewpointWater temp
2016-Sep-26 02:33N 49°26' E 000°18'1312.7
2016-Sep-26 01:33N 49°28' W 000°02'9 8.8
2016-Sep-26 00:33N 49°31' W 000°15'26 8.8
2016-Sep-25 21:33N 49°42' W 000°51'7610.8
2016-Sep-25 14:31N 49°49' W 002°48'12012.0
2016-Sep-25 04:33N 48°50' W 005°29'59012.3
2016-Sep-23 04:33N 39°30' W 009°51'1212.2
2016-Sep-23 03:33N 39°18' W 009°51'1212.3
2016-Sep-23 02:33N 39°06' W 009°51'1212.4
2016-Sep-23 01:33N 38°54' W 009°51'1212.3
2016-Sep-23 00:33N 38°41' W 009°51'1212.2
2016-Sep-22 23:33N 38°29' W 009°47'3511.7
2016-Sep-22 20:33N 37°55' W 009°38'8910.7
2016-Sep-22 12:13N 36°37' W 008°44'15812.5
2016-Sep-21 23:33N 35°58' W 005°34'10 9.9
2016-Sep-21 22:33N 36°01' W 005°22'15111.6
2016-Sep-21 09:33N 36°25' W 002°17'1512.3
2016-Sep-21 08:22N 36°32' W 002°01'3713.1
2016-Sep-21 05:31N 36°57' W 001°26'2512.6
2016-Sep-21 03:32N 37°13' W 001°03'1212.0
2016-Sep-21 02:31N 37°22' W 000°51'19712.3
2016-Sep-20 10:33N 39°58' E 001°42'2613.0
2016-Sep-20 08:34N 40°18' E 002°03'1313.0
2016-Sep-20 07:33N 40°29' E 002°14'1913.0
2016-Sep-20 06:07N 40°44' E 002°28'15212.9
2016-Sep-19 18:20N 42°44' E 004°34'42 8.2
2016-Sep-19 13:14N 43°24' E 004°51'0 0.0
2016-Sep-19 12:29N 43°24' E 004°51'0 0.0
2016-Sep-19 09:23N 43°24' E 004°51'0 0.0
2016-Sep-19 07:29N 43°24' E 004°51'0 0.0
2016-Sep-19 06:29N 43°24' E 004°51'0 0.0
2016-Sep-19 03:17N 43°24' E 004°51'0 0.0
2016-Sep-19 02:29N 43°24' E 004°51'0 0.0
2016-Sep-19 00:32N 43°24' E 004°51'0 0.0
2016-Sep-18 19:32N 43°24' E 004°51'0 0.0
2016-Sep-18 15:23N 43°24' E 004°51'0 0.0
2016-Sep-18 14:23N 43°24' E 004°51'0 0.0
2016-Sep-18 10:29N 43°24' E 004°51'0 0.0
2016-Sep-18 09:29N 43°24' E 004°51'0 0.0
2016-Sep-18 02:29N 43°24' E 004°51'0 0.0
2016-Sep-18 01:17N 43°24' E 004°51'0 0.0
2016-Sep-18 00:32N 43°24' E 004°51'0 0.0
2016-Sep-17 22:20N 43°24' E 004°51'0 0.0
2016-Sep-17 21:26N 43°24' E 004°51'0 0.0
2016-Sep-17 20:23N 43°24' E 004°51'0 0.0
2016-Sep-17 19:14N 43°24' E 004°51'0 0.0
2016-Sep-17 13:08N 43°24' E 004°51'0 0.0
2016-Sep-17 12:17N 43°24' E 004°51'0 0.0
2016-Sep-17 09:32N 43°24' E 004°51'0 0.0
2016-Sep-17 08:26N 43°24' E 004°51'0 0.0
2016-Sep-17 07:29N 43°24' E 004°51'0 0.0
2016-Sep-17 05:29N 43°24' E 004°51'0 0.0
2016-Sep-17 04:29N 43°24' E 004°51'0 0.0
2016-Sep-17 00:29N 43°24' E 004°51'0 0.0
2016-Sep-16 17:29N 43°24' E 004°51'0 0.0
2016-Sep-16 15:29N 43°24' E 004°51'0 0.0
2016-Sep-16 12:23N 43°24' E 004°51'0 0.0
2016-Sep-16 09:29N 43°24' E 004°51'0 0.0
2016-Sep-16 07:23N 43°24' E 004°51'4 1.0
2016-Sep-16 03:32N 43°25' E 004°56'  
Track history (hours):
 
Tides and Currents Weather Stations Pressure Air Temp Water Temp Dewpoint Dewpoint Depression Visibility Wind Speed Wind Dir Waves Ship Positions

Stella Prima

Last reported at 2016-Sep-26 02:33 UTC. Time now 2016-Sep-26 19:03 UTC.
Position N 49°26' E 000°18'.

Length 100 m; beam 21 m.

Type: Cargo ship. MMSI: 246460000.

Date/timePositionNaut miles runAvg speedWind from/ knotsBaromVisibWave heightAir tempDewpointWater temp
2016-Sep-26 02:33N 49°26' E 000°18'1312.7
2016-Sep-26 01:33N 49°28' W 000°02'9 8.8
2016-Sep-26 00:33N 49°31' W 000°15'26 8.8
2016-Sep-25 21:33N 49°42' W 000°51'7610.8
2016-Sep-25 14:31N 49°49' W 002°48'12012.0
2016-Sep-25 04:33N 48°50' W 005°29'59012.3
2016-Sep-23 04:33N 39°30' W 009°51'1212.2
2016-Sep-23 03:33N 39°18' W 009°51'1212.3
2016-Sep-23 02:33N 39°06' W 009°51'1212.4
2016-Sep-23 01:33N 38°54' W 009°51'1212.3
2016-Sep-23 00:33N 38°41' W 009°51'1212.2
2016-Sep-22 23:33N 38°29' W 009°47'3511.7
2016-Sep-22 20:33N 37°55' W 009°38'8910.7
2016-Sep-22 12:13N 36°37' W 008°44'15812.5
2016-Sep-21 23:33N 35°58' W 005°34'10 9.9
2016-Sep-21 22:33N 36°01' W 005°22'15111.6
2016-Sep-21 09:33N 36°25' W 002°17'1512.3
2016-Sep-21 08:22N 36°32' W 002°01'3713.1
2016-Sep-21 05:31N 36°57' W 001°26'2512.6
2016-Sep-21 03:32N 37°13' W 001°03'1212.0
2016-Sep-21 02:31N 37°22' W 000°51'19712.3
2016-Sep-20 10:33N 39°58' E 001°42'2613.0
2016-Sep-20 08:34N 40°18' E 002°03'1313.0
2016-Sep-20 07:33N 40°29' E 002°14'1913.0
2016-Sep-20 06:07N 40°44' E 002°28'15212.9
2016-Sep-19 18:20N 42°44' E 004°34'42 8.2
2016-Sep-19 13:14N 43°24' E 004°51'0 0.0
2016-Sep-19 12:29N 43°24' E 004°51'0 0.0
2016-Sep-19 09:23N 43°24' E 004°51'0 0.0
2016-Sep-19 07:29N 43°24' E 004°51'0 0.0
2016-Sep-19 06:29N 43°24' E 004°51'0 0.0
2016-Sep-19 03:17N 43°24' E 004°51'0 0.0
2016-Sep-19 02:29N 43°24' E 004°51'0 0.0
2016-Sep-19 00:32N 43°24' E 004°51'0 0.0
2016-Sep-18 19:32N 43°24' E 004°51'0 0.0
2016-Sep-18 15:23N 43°24' E 004°51'0 0.0
2016-Sep-18 14:23N 43°24' E 004°51'0 0.0
2016-Sep-18 10:29N 43°24' E 004°51'0 0.0
2016-Sep-18 09:29N 43°24' E 004°51'0 0.0
2016-Sep-18 02:29N 43°24' E 004°51'0 0.0
2016-Sep-18 01:17N 43°24' E 004°51'0 0.0
2016-Sep-18 00:32N 43°24' E 004°51'0 0.0
2016-Sep-17 22:20N 43°24' E 004°51'0 0.0
2016-Sep-17 21:26N 43°24' E 004°51'0 0.0
2016-Sep-17 20:23N 43°24' E 004°51'0 0.0
2016-Sep-17 19:14N 43°24' E 004°51'0 0.0
2016-Sep-17 13:08N 43°24' E 004°51'0 0.0
2016-Sep-17 12:17N 43°24' E 004°51'0 0.0
2016-Sep-17 09:32N 43°24' E 004°51'0 0.0
2016-Sep-17 08:26N 43°24' E 004°51'0 0.0
2016-Sep-17 07:29N 43°24' E 004°51'0 0.0
2016-Sep-17 05:29N 43°24' E 004°51'0 0.0
2016-Sep-17 04:29N 43°24' E 004°51'0 0.0
2016-Sep-17 00:29N 43°24' E 004°51'0 0.0
2016-Sep-16 17:29N 43°24' E 004°51'0 0.0
2016-Sep-16 15:29N 43°24' E 004°51'0 0.0
2016-Sep-16 12:23N 43°24' E 004°51'0 0.0
2016-Sep-16 09:29N 43°24' E 004°51'0 0.0
2016-Sep-16 07:23N 43°24' E 004°51'4 1.0
2016-Sep-16 03:32N 43°25' E 004°56'  

Dump ship's entire track history